sensor_id;sensor_type;location;lat;lon;timestamp;P1;durP1;ratioP1;P2;durP2;ratioP2
19929;SDS011;10127;47.780;9.606;2023-02-26T00:01:02;4.53;;;2.97;;
19929;SDS011;10127;47.780;9.606;2023-02-26T00:03:36;4.93;;;2.73;;
19929;SDS011;10127;47.780;9.606;2023-02-26T00:06:01;8.90;;;3.37;;
19929;SDS011;10127;47.780;9.606;2023-02-26T00:08:27;7.30;;;4.20;;
19929;SDS011;10127;47.780;9.606;2023-02-26T00:10:52;7.97;;;2.80;;
19929;SDS011;10127;47.780;9.606;2023-02-26T00:13:18;4.17;;;3.10;;
19929;SDS011;10127;47.780;9.606;2023-02-26T00:15:44;6.27;;;2.60;;
19929;SDS011;10127;47.780;9.606;2023-02-26T00:18:12;6.73;;;3.03;;
19929;SDS011;10127;47.780;9.606;2023-02-26T00:20:40;6.77;;;3.20;;
19929;SDS011;10127;47.780;9.606;2023-02-26T00:23:10;3.57;;;2.80;;
19929;SDS011;10127;47.780;9.606;2023-02-26T00:25:38;5.00;;;3.47;;
19929;SDS011;10127;47.780;9.606;2023-02-26T00:28:04;5.70;;;3.60;;
19929;SDS011;10127;47.780;9.606;2023-02-26T00:30:31;3.63;;;2.50;;
19929;SDS011;10127;47.780;9.606;2023-02-26T00:32:57;4.47;;;2.93;;
19929;SDS011;10127;47.780;9.606;2023-02-26T00:35:22;3.27;;;2.37;;
19929;SDS011;10127;47.780;9.606;2023-02-26T00:37:54;3.77;;;2.57;;
19929;SDS011;10127;47.780;9.606;2023-02-26T00:43:09;7.23;;;2.60;;
19929;SDS011;10127;47.780;9.606;2023-02-26T00:45:41;4.10;;;2.40;;
19929;SDS011;10127;47.780;9.606;2023-02-26T00:48:50;3.70;;;2.27;;
19929;SDS011;10127;47.780;9.606;2023-02-26T00:51:51;3.00;;;2.50;;
19929;SDS011;10127;47.780;9.606;2023-02-26T00:56:47;2.43;;;1.97;;
19929;SDS011;10127;47.780;9.606;2023-02-26T00:59:14;2.87;;;2.30;;
19929;SDS011;10127;47.780;9.606;2023-02-26T01:01:40;3.77;;;2.40;;
19929;SDS011;10127;47.780;9.606;2023-02-26T01:04:06;7.73;;;2.63;;
19929;SDS011;10127;47.780;9.606;2023-02-26T01:06:33;4.17;;;2.27;;
19929;SDS011;10127;47.780;9.606;2023-02-26T01:09:09;3.03;;;2.03;;
19929;SDS011;10127;47.780;9.606;2023-02-26T01:11:43;4.50;;;2.17;;
19929;SDS011;10127;47.780;9.606;2023-02-26T01:14:09;2.60;;;2.00;;
19929;SDS011;10127;47.780;9.606;2023-02-26T01:16:56;5.30;;;2.23;;
19929;SDS011;10127;47.780;9.606;2023-02-26T01:22:07;4.40;;;1.97;;
19929;SDS011;10127;47.780;9.606;2023-02-26T01:24:39;3.27;;;2.40;;
19929;SDS011;10127;47.780;9.606;2023-02-26T01:27:05;3.40;;;2.13;;
19929;SDS011;10127;47.780;9.606;2023-02-26T01:29:31;4.53;;;1.87;;
19929;SDS011;10127;47.780;9.606;2023-02-26T01:32:05;5.77;;;2.57;;
19929;SDS011;10127;47.780;9.606;2023-02-26T01:34:46;7.50;;;2.63;;
19929;SDS011;10127;47.780;9.606;2023-02-26T01:40:15;5.10;;;3.10;;
19929;SDS011;10127;47.780;9.606;2023-02-26T01:43:06;9.67;;;3.97;;
19929;SDS011;10127;47.780;9.606;2023-02-26T01:45:54;7.80;;;3.90;;
19929;SDS011;10127;47.780;9.606;2023-02-26T01:48:39;7.13;;;3.30;;
19929;SDS011;10127;47.780;9.606;2023-02-26T01:51:19;4.90;;;2.57;;
19929;SDS011;10127;47.780;9.606;2023-02-26T01:54:16;2.83;;;2.47;;
19929;SDS011;10127;47.780;9.606;2023-02-26T01:56:43;4.97;;;2.60;;
19929;SDS011;10127;47.780;9.606;2023-02-26T01:59:12;3.37;;;2.30;;
19929;SDS011;10127;47.780;9.606;2023-02-26T02:01:40;2.30;;;2.10;;
19929;SDS011;10127;47.780;9.606;2023-02-26T02:04:07;3.37;;;2.30;;
19929;SDS011;10127;47.780;9.606;2023-02-26T02:06:36;4.43;;;2.30;;
19929;SDS011;10127;47.780;9.606;2023-02-26T02:09:06;3.23;;;2.70;;
19929;SDS011;10127;47.780;9.606;2023-02-26T02:11:33;8.20;;;2.67;;
19929;SDS011;10127;47.780;9.606;2023-02-26T02:16:44;6.20;;;2.70;;
19929;SDS011;10127;47.780;9.606;2023-02-26T02:33:22;4.93;;;2.93;;
19929;SDS011;10127;47.780;9.606;2023-02-26T02:35:58;7.00;;;3.07;;
19929;SDS011;10127;47.780;9.606;2023-02-26T02:38:48;4.20;;;2.77;;
19929;SDS011;10127;47.780;9.606;2023-02-26T02:41:21;3.93;;;2.40;;
19929;SDS011;10127;47.780;9.606;2023-02-26T02:43:53;4.73;;;3.13;;
19929;SDS011;10127;47.780;9.606;2023-02-26T02:46:24;5.10;;;2.97;;
19929;SDS011;10127;47.780;9.606;2023-02-26T02:49:00;4.43;;;2.57;;
19929;SDS011;10127;47.780;9.606;2023-02-26T03:12:10;3.07;;;1.73;;
19929;SDS011;10127;47.780;9.606;2023-02-26T03:14:36;4.30;;;1.83;;
19929;SDS011;10127;47.780;9.606;2023-02-26T03:29:46;1.87;;;1.70;;
19929;SDS011;10127;47.780;9.606;2023-02-26T03:32:22;2.13;;;1.50;;
19929;SDS011;10127;47.780;9.606;2023-02-26T03:35:00;3.67;;;1.60;;
19929;SDS011;10127;47.780;9.606;2023-02-26T03:37:47;2.03;;;1.60;;
19929;SDS011;10127;47.780;9.606;2023-02-26T03:40:18;2.10;;;1.90;;
19929;SDS011;10127;47.780;9.606;2023-02-26T03:43:05;3.03;;;1.77;;
19929;SDS011;10127;47.780;9.606;2023-02-26T03:45:42;3.87;;;1.70;;
19929;SDS011;10127;47.780;9.606;2023-02-26T03:48:12;5.40;;;1.60;;
19929;SDS011;10127;47.780;9.606;2023-02-26T03:50:51;3.10;;;1.53;;
19929;SDS011;10127;47.780;9.606;2023-02-26T03:53:24;3.80;;;2.20;;
19929;SDS011;10127;47.780;9.606;2023-02-26T03:56:08;5.60;;;1.73;;
19929;SDS011;10127;47.780;9.606;2023-02-26T03:58:42;4.27;;;1.97;;
19929;SDS011;10127;47.780;9.606;2023-02-26T04:01:28;3.37;;;1.90;;
19929;SDS011;10127;47.780;9.606;2023-02-26T04:04:01;5.43;;;1.73;;
19929;SDS011;10127;47.780;9.606;2023-02-26T04:06:41;3.33;;;1.70;;
19929;SDS011;10127;47.780;9.606;2023-02-26T04:09:08;5.80;;;1.70;;
19929;SDS011;10127;47.780;9.606;2023-02-26T04:11:33;7.93;;;2.10;;
19929;SDS011;10127;47.780;9.606;2023-02-26T04:14:01;3.03;;;1.83;;
19929;SDS011;10127;47.780;9.606;2023-02-26T04:16:26;3.03;;;1.50;;
19929;SDS011;10127;47.780;9.606;2023-02-26T04:18:52;4.30;;;1.80;;
19929;SDS011;10127;47.780;9.606;2023-02-26T04:21:19;2.63;;;1.50;;
19929;SDS011;10127;47.780;9.606;2023-02-26T04:23:46;2.57;;;1.70;;
19929;SDS011;10127;47.780;9.606;2023-02-26T04:26:13;4.97;;;1.73;;
19929;SDS011;10127;47.780;9.606;2023-02-26T04:28:39;3.43;;;1.43;;
19929;SDS011;10127;47.780;9.606;2023-02-26T04:31:05;3.10;;;1.60;;
19929;SDS011;10127;47.780;9.606;2023-02-26T04:33:31;4.97;;;1.60;;
19929;SDS011;10127;47.780;9.606;2023-02-26T04:35:58;7.90;;;1.80;;
19929;SDS011;10127;47.780;9.606;2023-02-26T04:38:24;3.83;;;1.77;;
19929;SDS011;10127;47.780;9.606;2023-02-26T04:40:50;3.97;;;1.87;;
19929;SDS011;10127;47.780;9.606;2023-02-26T04:43:16;2.40;;;1.90;;
19929;SDS011;10127;47.780;9.606;2023-02-26T04:45:44;2.73;;;2.30;;
19929;SDS011;10127;47.780;9.606;2023-02-26T04:48:11;3.73;;;1.70;;
19929;SDS011;10127;47.780;9.606;2023-02-26T04:50:37;4.00;;;1.87;;
19929;SDS011;10127;47.780;9.606;2023-02-26T04:53:02;3.67;;;2.10;;
19929;SDS011;10127;47.780;9.606;2023-02-26T04:55:28;3.77;;;2.30;;
19929;SDS011;10127;47.780;9.606;2023-02-26T04:57:53;3.00;;;2.07;;
19929;SDS011;10127;47.780;9.606;2023-02-26T05:00:19;4.20;;;2.10;;
19929;SDS011;10127;47.780;9.606;2023-02-26T05:02:45;5.73;;;2.20;;
19929;SDS011;10127;47.780;9.606;2023-02-26T05:05:10;4.40;;;2.17;;
19929;SDS011;10127;47.780;9.606;2023-02-26T05:07:36;3.33;;;2.03;;
19929;SDS011;10127;47.780;9.606;2023-02-26T05:10:02;5.23;;;2.07;;
19929;SDS011;10127;47.780;9.606;2023-02-26T05:12:30;3.97;;;2.57;;
19929;SDS011;10127;47.780;9.606;2023-02-26T05:14:55;6.10;;;2.40;;
19929;SDS011;10127;47.780;9.606;2023-02-26T05:17:21;2.90;;;2.57;;
19929;SDS011;10127;47.780;9.606;2023-02-26T05:19:47;4.97;;;2.63;;
19929;SDS011;10127;47.780;9.606;2023-02-26T05:22:13;5.43;;;2.50;;
19929;SDS011;10127;47.780;9.606;2023-02-26T05:24:38;4.87;;;2.87;;
19929;SDS011;10127;47.780;9.606;2023-02-26T05:27:04;4.73;;;2.73;;
19929;SDS011;10127;47.780;9.606;2023-02-26T05:29:30;4.03;;;2.57;;
19929;SDS011;10127;47.780;9.606;2023-02-26T05:31:56;5.50;;;2.90;;
19929;SDS011;10127;47.780;9.606;2023-02-26T05:34:22;3.80;;;2.70;;
19929;SDS011;10127;47.780;9.606;2023-02-26T05:36:48;4.37;;;2.33;;
19929;SDS011;10127;47.780;9.606;2023-02-26T05:39:13;5.47;;;2.80;;
19929;SDS011;10127;47.780;9.606;2023-02-26T05:41:39;7.27;;;2.50;;
19929;SDS011;10127;47.780;9.606;2023-02-26T05:44:05;2.83;;;2.17;;
19929;SDS011;10127;47.780;9.606;2023-02-26T05:46:32;2.67;;;2.30;;
19929;SDS011;10127;47.780;9.606;2023-02-26T05:48:57;4.20;;;2.10;;
19929;SDS011;10127;47.780;9.606;2023-02-26T05:51:23;3.83;;;2.37;;
19929;SDS011;10127;47.780;9.606;2023-02-26T05:53:49;5.30;;;2.57;;
19929;SDS011;10127;47.780;9.606;2023-02-26T05:56:14;3.47;;;2.23;;
19929;SDS011;10127;47.780;9.606;2023-02-26T05:58:40;4.13;;;2.80;;
19929;SDS011;10127;47.780;9.606;2023-02-26T06:01:06;2.47;;;2.10;;
19929;SDS011;10127;47.780;9.606;2023-02-26T06:03:31;5.43;;;2.30;;
19929;SDS011;10127;47.780;9.606;2023-02-26T06:05:57;10.70;;;2.13;;
19929;SDS011;10127;47.780;9.606;2023-02-26T06:08:23;6.60;;;2.43;;
19929;SDS011;10127;47.780;9.606;2023-02-26T06:10:49;4.90;;;2.30;;
19929;SDS011;10127;47.780;9.606;2023-02-26T06:13:15;3.37;;;2.30;;
19929;SDS011;10127;47.780;9.606;2023-02-26T06:15:41;2.23;;;1.77;;
19929;SDS011;10127;47.780;9.606;2023-02-26T06:18:06;3.80;;;1.93;;
19929;SDS011;10127;47.780;9.606;2023-02-26T06:20:32;9.80;;;2.53;;
19929;SDS011;10127;47.780;9.606;2023-02-26T06:22:58;6.37;;;2.33;;
19929;SDS011;10127;47.780;9.606;2023-02-26T06:25:23;3.83;;;2.17;;
19929;SDS011;10127;47.780;9.606;2023-02-26T06:27:49;3.10;;;2.13;;
19929;SDS011;10127;47.780;9.606;2023-02-26T06:30:15;5.90;;;2.10;;
19929;SDS011;10127;47.780;9.606;2023-02-26T06:32:42;11.83;;;2.00;;
19929;SDS011;10127;47.780;9.606;2023-02-26T06:35:09;4.90;;;2.10;;
19929;SDS011;10127;47.780;9.606;2023-02-26T06:37:35;3.90;;;2.03;;
19929;SDS011;10127;47.780;9.606;2023-02-26T06:40:01;6.17;;;2.30;;
19929;SDS011;10127;47.780;9.606;2023-02-26T06:42:28;8.30;;;2.40;;
19929;SDS011;10127;47.780;9.606;2023-02-26T06:44:53;3.93;;;2.10;;
19929;SDS011;10127;47.780;9.606;2023-02-26T06:47:21;4.07;;;2.20;;
19929;SDS011;10127;47.780;9.606;2023-02-26T06:49:46;3.90;;;2.30;;
19929;SDS011;10127;47.780;9.606;2023-02-26T06:52:13;5.37;;;2.07;;
19929;SDS011;10127;47.780;9.606;2023-02-26T06:54:39;3.77;;;2.27;;
19929;SDS011;10127;47.780;9.606;2023-02-26T06:57:04;3.87;;;2.13;;
19929;SDS011;10127;47.780;9.606;2023-02-26T06:59:30;4.90;;;2.30;;
19929;SDS011;10127;47.780;9.606;2023-02-26T07:01:55;3.60;;;2.10;;
19929;SDS011;10127;47.780;9.606;2023-02-26T07:04:21;4.50;;;2.07;;
19929;SDS011;10127;47.780;9.606;2023-02-26T07:06:47;4.13;;;2.23;;
19929;SDS011;10127;47.780;9.606;2023-02-26T07:09:12;2.87;;;1.73;;
19929;SDS011;10127;47.780;9.606;2023-02-26T07:11:38;3.70;;;2.10;;
19929;SDS011;10127;47.780;9.606;2023-02-26T07:14:03;5.33;;;2.00;;
19929;SDS011;10127;47.780;9.606;2023-02-26T07:16:29;6.07;;;2.30;;
19929;SDS011;10127;47.780;9.606;2023-02-26T07:18:54;3.03;;;1.80;;
19929;SDS011;10127;47.780;9.606;2023-02-26T07:21:20;3.23;;;2.20;;
19929;SDS011;10127;47.780;9.606;2023-02-26T07:23:45;5.03;;;2.37;;
19929;SDS011;10127;47.780;9.606;2023-02-26T07:26:11;2.83;;;2.10;;
19929;SDS011;10127;47.780;9.606;2023-02-26T07:28:37;3.73;;;1.87;;
19929;SDS011;10127;47.780;9.606;2023-02-26T07:31:02;6.93;;;2.07;;
19929;SDS011;10127;47.780;9.606;2023-02-26T07:33:28;3.00;;;1.90;;
19929;SDS011;10127;47.780;9.606;2023-02-26T07:35:55;2.73;;;2.00;;
19929;SDS011;10127;47.780;9.606;2023-02-26T07:38:21;2.30;;;1.73;;
19929;SDS011;10127;47.780;9.606;2023-02-26T07:40:47;4.47;;;1.83;;
19929;SDS011;10127;47.780;9.606;2023-02-26T07:43:12;3.00;;;1.90;;
19929;SDS011;10127;47.780;9.606;2023-02-26T07:45:38;2.93;;;1.60;;
19929;SDS011;10127;47.780;9.606;2023-02-26T07:48:03;3.73;;;1.83;;
19929;SDS011;10127;47.780;9.606;2023-02-26T07:50:29;5.83;;;2.00;;
19929;SDS011;10127;47.780;9.606;2023-02-26T07:52:54;4.50;;;1.93;;
19929;SDS011;10127;47.780;9.606;2023-02-26T07:55:20;3.63;;;1.70;;
19929;SDS011;10127;47.780;9.606;2023-02-26T07:57:46;6.67;;;2.00;;
19929;SDS011;10127;47.780;9.606;2023-02-26T08:00:12;5.87;;;1.90;;
19929;SDS011;10127;47.780;9.606;2023-02-26T08:02:39;4.67;;;1.80;;
19929;SDS011;10127;47.780;9.606;2023-02-26T08:05:04;2.43;;;1.80;;
19929;SDS011;10127;47.780;9.606;2023-02-26T08:07:30;4.03;;;1.90;;
19929;SDS011;10127;47.780;9.606;2023-02-26T08:09:57;5.63;;;2.07;;
19929;SDS011;10127;47.780;9.606;2023-02-26T08:12:22;4.07;;;2.13;;
19929;SDS011;10127;47.780;9.606;2023-02-26T08:14:48;2.90;;;1.57;;
19929;SDS011;10127;47.780;9.606;2023-02-26T08:17:13;3.40;;;1.83;;
19929;SDS011;10127;47.780;9.606;2023-02-26T08:19:39;4.27;;;1.93;;
19929;SDS011;10127;47.780;9.606;2023-02-26T08:22:04;4.63;;;1.63;;
19929;SDS011;10127;47.780;9.606;2023-02-26T08:24:30;4.47;;;2.03;;
19929;SDS011;10127;47.780;9.606;2023-02-26T08:26:56;4.30;;;1.70;;
19929;SDS011;10127;47.780;9.606;2023-02-26T08:29:21;2.63;;;1.60;;
19929;SDS011;10127;47.780;9.606;2023-02-26T08:31:47;3.23;;;1.77;;
19929;SDS011;10127;47.780;9.606;2023-02-26T08:34:12;3.37;;;1.70;;
19929;SDS011;10127;47.780;9.606;2023-02-26T08:36:38;7.10;;;1.67;;
19929;SDS011;10127;47.780;9.606;2023-02-26T08:39:04;4.40;;;1.63;;
19929;SDS011;10127;47.780;9.606;2023-02-26T08:41:31;5.70;;;1.57;;
19929;SDS011;10127;47.780;9.606;2023-02-26T08:43:58;2.33;;;1.70;;
19929;SDS011;10127;47.780;9.606;2023-02-26T08:46:24;2.30;;;1.83;;
19929;SDS011;10127;47.780;9.606;2023-02-26T08:48:50;3.97;;;1.70;;
19929;SDS011;10127;47.780;9.606;2023-02-26T08:51:15;3.27;;;1.83;;
19929;SDS011;10127;47.780;9.606;2023-02-26T08:53:42;3.20;;;2.00;;
19929;SDS011;10127;47.780;9.606;2023-02-26T08:56:10;6.73;;;2.13;;
19929;SDS011;10127;47.780;9.606;2023-02-26T08:58:35;5.87;;;2.00;;
19929;SDS011;10127;47.780;9.606;2023-02-26T09:01:01;3.50;;;2.10;;
19929;SDS011;10127;47.780;9.606;2023-02-26T09:03:26;7.17;;;1.70;;
19929;SDS011;10127;47.780;9.606;2023-02-26T09:05:52;4.93;;;2.00;;
19929;SDS011;10127;47.780;9.606;2023-02-26T09:08:17;2.90;;;1.83;;
19929;SDS011;10127;47.780;9.606;2023-02-26T09:10:44;1.83;;;1.70;;
19929;SDS011;10127;47.780;9.606;2023-02-26T09:13:10;5.63;;;1.77;;
19929;SDS011;10127;47.780;9.606;2023-02-26T09:15:36;2.33;;;1.70;;
19929;SDS011;10127;47.780;9.606;2023-02-26T09:18:02;2.87;;;2.30;;
19929;SDS011;10127;47.780;9.606;2023-02-26T09:20:27;3.30;;;1.73;;
19929;SDS011;10127;47.780;9.606;2023-02-26T09:22:53;5.97;;;1.90;;
19929;SDS011;10127;47.780;9.606;2023-02-26T09:25:18;2.10;;;1.70;;
19929;SDS011;10127;47.780;9.606;2023-02-26T09:27:44;2.60;;;1.90;;
19929;SDS011;10127;47.780;9.606;2023-02-26T09:30:10;2.30;;;2.10;;
19929;SDS011;10127;47.780;9.606;2023-02-26T09:32:36;3.53;;;1.97;;
19929;SDS011;10127;47.780;9.606;2023-02-26T09:35:03;5.27;;;2.07;;
19929;SDS011;10127;47.780;9.606;2023-02-26T09:37:29;3.17;;;1.90;;
19929;SDS011;10127;47.780;9.606;2023-02-26T09:39:55;2.80;;;2.03;;
19929;SDS011;10127;47.780;9.606;2023-02-26T09:42:41;5.73;;;1.90;;
19929;SDS011;10127;47.780;9.606;2023-02-26T09:45:30;4.20;;;2.07;;
19929;SDS011;10127;47.780;9.606;2023-02-26T09:48:00;3.17;;;1.67;;
19929;SDS011;10127;47.780;9.606;2023-02-26T09:53:06;3.93;;;1.73;;
19929;SDS011;10127;47.780;9.606;2023-02-26T09:55:47;2.33;;;1.60;;
19929;SDS011;10127;47.780;9.606;2023-02-26T10:01:08;4.13;;;1.87;;
19929;SDS011;10127;47.780;9.606;2023-02-26T10:06:32;6.00;;;2.00;;
19929;SDS011;10127;47.780;9.606;2023-02-26T10:12:26;2.57;;;1.87;;
19929;SDS011;10127;47.780;9.606;2023-02-26T10:15:11;4.10;;;2.00;;
19929;SDS011;10127;47.780;9.606;2023-02-26T10:18:00;4.10;;;1.90;;
19929;SDS011;10127;47.780;9.606;2023-02-26T10:20:41;2.20;;;1.60;;
19929;SDS011;10127;47.780;9.606;2023-02-26T10:25:57;1.97;;;1.73;;
19929;SDS011;10127;47.780;9.606;2023-02-26T10:31:10;1.47;;;1.20;;
19929;SDS011;10127;47.780;9.606;2023-02-26T10:33:59;1.97;;;1.80;;
19929;SDS011;10127;47.780;9.606;2023-02-26T10:36:39;1.40;;;1.30;;
19929;SDS011;10127;47.780;9.606;2023-02-26T10:39:17;3.90;;;1.40;;
19929;SDS011;10127;47.780;9.606;2023-02-26T10:41:50;1.90;;;1.37;;
19929;SDS011;10127;47.780;9.606;2023-02-26T10:44:26;3.47;;;1.73;;
19929;SDS011;10127;47.780;9.606;2023-02-26T10:49:49;2.13;;;1.57;;
19929;SDS011;10127;47.780;9.606;2023-02-26T10:52:17;2.40;;;1.40;;
19929;SDS011;10127;47.780;9.606;2023-02-26T10:54:55;3.50;;;2.10;;
19929;SDS011;10127;47.780;9.606;2023-02-26T10:57:28;2.60;;;1.40;;
19929;SDS011;10127;47.780;9.606;2023-02-26T10:59:59;1.73;;;1.33;;
19929;SDS011;10127;47.780;9.606;2023-02-26T11:02:44;4.63;;;1.60;;
19929;SDS011;10127;47.780;9.606;2023-02-26T11:05:17;5.60;;;1.60;;
19929;SDS011;10127;47.780;9.606;2023-02-26T11:07:46;2.03;;;1.40;;
19929;SDS011;10127;47.780;9.606;2023-02-26T11:10:17;2.13;;;1.57;;
19929;SDS011;10127;47.780;9.606;2023-02-26T11:12:47;3.80;;;3.07;;
19929;SDS011;10127;47.780;9.606;2023-02-26T11:15:17;4.87;;;1.40;;
19929;SDS011;10127;47.780;9.606;2023-02-26T11:17:48;2.23;;;1.40;;
19929;SDS011;10127;47.780;9.606;2023-02-26T11:22:56;2.70;;;1.67;;
19929;SDS011;10127;47.780;9.606;2023-02-26T11:25:26;1.70;;;1.60;;
19929;SDS011;10127;47.780;9.606;2023-02-26T11:28:05;3.93;;;1.77;;
19929;SDS011;10127;47.780;9.606;2023-02-26T11:30:51;1.77;;;1.67;;
19929;SDS011;10127;47.780;9.606;2023-02-26T11:35:50;3.13;;;1.53;;
19929;SDS011;10127;47.780;9.606;2023-02-26T11:38:18;2.17;;;1.70;;
19929;SDS011;10127;47.780;9.606;2023-02-26T11:40:47;1.40;;;1.30;;
19929;SDS011;10127;47.780;9.606;2023-02-26T11:43:17;1.67;;;1.47;;
19929;SDS011;10127;47.780;9.606;2023-02-26T11:45:46;2.33;;;1.40;;
19929;SDS011;10127;47.780;9.606;2023-02-26T11:48:19;3.50;;;1.57;;
19929;SDS011;10127;47.780;9.606;2023-02-26T11:50:58;3.00;;;1.63;;
19929;SDS011;10127;47.780;9.606;2023-02-26T11:53:31;3.23;;;1.80;;
19929;SDS011;10127;47.780;9.606;2023-02-26T11:56:01;1.53;;;1.43;;
19929;SDS011;10127;47.780;9.606;2023-02-26T11:58:36;3.33;;;1.60;;
19929;SDS011;10127;47.780;9.606;2023-02-26T12:01:03;4.27;;;1.90;;
19929;SDS011;10127;47.780;9.606;2023-02-26T12:03:33;1.87;;;1.60;;
19929;SDS011;10127;47.780;9.606;2023-02-26T12:06:01;2.50;;;1.80;;
19929;SDS011;10127;47.780;9.606;2023-02-26T12:08:29;4.90;;;1.40;;
19929;SDS011;10127;47.780;9.606;2023-02-26T12:11:07;3.30;;;1.63;;
19929;SDS011;10127;47.780;9.606;2023-02-26T12:19:21;2.57;;;1.93;;
19929;SDS011;10127;47.780;9.606;2023-02-26T12:22:37;2.80;;;1.80;;
19929;SDS011;10127;47.780;9.606;2023-02-26T12:25:35;1.80;;;1.70;;
19929;SDS011;10127;47.780;9.606;2023-02-26T12:34:28;2.23;;;1.87;;
19929;SDS011;10127;47.780;9.606;2023-02-26T12:42:11;1.80;;;1.70;;
19929;SDS011;10127;47.780;9.606;2023-02-26T12:47:39;1.70;;;1.60;;
19929;SDS011;10127;47.780;9.606;2023-02-26T12:50:33;2.20;;;1.73;;
19929;SDS011;10127;47.780;9.606;2023-02-26T12:55:56;1.80;;;1.70;;
19929;SDS011;10127;47.780;9.606;2023-02-26T12:58:37;2.03;;;1.83;;
19929;SDS011;10127;47.780;9.606;2023-02-26T13:01:28;2.63;;;2.07;;
19929;SDS011;10127;47.780;9.606;2023-02-26T13:09:32;1.97;;;1.87;;
19929;SDS011;10127;47.780;9.606;2023-02-26T13:12:37;2.33;;;1.70;;
19929;SDS011;10127;47.780;9.606;2023-02-26T13:15:14;2.20;;;2.00;;
19929;SDS011;10127;47.780;9.606;2023-02-26T13:17:46;1.90;;;1.80;;
19929;SDS011;10127;47.780;9.606;2023-02-26T13:20:23;4.50;;;1.53;;
19929;SDS011;10127;47.780;9.606;2023-02-26T13:22:55;1.80;;;1.60;;
19929;SDS011;10127;47.780;9.606;2023-02-26T13:25:32;3.23;;;2.00;;
19929;SDS011;10127;47.780;9.606;2023-02-26T13:28:17;4.27;;;1.73;;
19929;SDS011;10127;47.780;9.606;2023-02-26T13:30:48;5.00;;;2.10;;
19929;SDS011;10127;47.780;9.606;2023-02-26T13:33:18;2.23;;;1.87;;
19929;SDS011;10127;47.780;9.606;2023-02-26T13:35:47;2.77;;;1.97;;
19929;SDS011;10127;47.780;9.606;2023-02-26T13:43:37;1.73;;;1.50;;
19929;SDS011;10127;47.780;9.606;2023-02-26T13:46:29;2.90;;;1.77;;
19929;SDS011;10127;47.780;9.606;2023-02-26T13:51:55;4.17;;;1.80;;
19929;SDS011;10127;47.780;9.606;2023-02-26T13:57:22;6.33;;;1.87;;
19929;SDS011;10127;47.780;9.606;2023-02-26T13:59:54;1.80;;;1.70;;
19929;SDS011;10127;47.780;9.606;2023-02-26T14:02:43;3.97;;;1.83;;
19929;SDS011;10127;47.780;9.606;2023-02-26T14:11:04;2.03;;;1.40;;
19929;SDS011;10127;47.780;9.606;2023-02-26T14:19:33;2.43;;;1.67;;
19929;SDS011;10127;47.780;9.606;2023-02-26T14:24:57;1.93;;;1.63;;
19929;SDS011;10127;47.780;9.606;2023-02-26T14:27:34;2.43;;;1.97;;
19929;SDS011;10127;47.780;9.606;2023-02-26T14:30:48;2.40;;;1.73;;
19929;SDS011;10127;47.780;9.606;2023-02-26T14:35:39;2.17;;;1.97;;
19929;SDS011;10127;47.780;9.606;2023-02-26T14:38:17;3.43;;;2.07;;
19929;SDS011;10127;47.780;9.606;2023-02-26T14:40:54;3.20;;;2.13;;
19929;SDS011;10127;47.780;9.606;2023-02-26T14:46:06;2.97;;;2.27;;
19929;SDS011;10127;47.780;9.606;2023-02-26T14:48:33;3.23;;;2.30;;
19929;SDS011;10127;47.780;9.606;2023-02-26T14:54:03;3.67;;;2.13;;
19929;SDS011;10127;47.780;9.606;2023-02-26T14:56:42;3.73;;;2.20;;
19929;SDS011;10127;47.780;9.606;2023-02-26T15:15:54;2.00;;;1.80;;
19929;SDS011;10127;47.780;9.606;2023-02-26T15:24:01;3.20;;;2.50;;
19929;SDS011;10127;47.780;9.606;2023-02-26T15:26:28;3.20;;;2.80;;
19929;SDS011;10127;47.780;9.606;2023-02-26T15:28:57;3.43;;;2.87;;
19929;SDS011;10127;47.780;9.606;2023-02-26T15:31:27;3.30;;;3.00;;
19929;SDS011;10127;47.780;9.606;2023-02-26T15:33:57;3.83;;;2.43;;
19929;SDS011;10127;47.780;9.606;2023-02-26T15:36:22;4.13;;;2.60;;
19929;SDS011;10127;47.780;9.606;2023-02-26T15:38:49;2.47;;;2.20;;
19929;SDS011;10127;47.780;9.606;2023-02-26T15:41:19;2.90;;;2.50;;
19929;SDS011;10127;47.780;9.606;2023-02-26T15:43:47;3.53;;;2.47;;
19929;SDS011;10127;47.780;9.606;2023-02-26T15:46:15;2.43;;;2.23;;
19929;SDS011;10127;47.780;9.606;2023-02-26T15:48:41;2.40;;;2.10;;
19929;SDS011;10127;47.780;9.606;2023-02-26T15:51:09;2.20;;;2.00;;
19929;SDS011;10127;47.780;9.606;2023-02-26T15:53:39;3.50;;;2.00;;
19929;SDS011;10127;47.780;9.606;2023-02-26T15:56:12;3.60;;;2.33;;
19929;SDS011;10127;47.780;9.606;2023-02-26T15:58:53;3.20;;;2.50;;
19929;SDS011;10127;47.780;9.606;2023-02-26T16:01:24;2.87;;;2.43;;
19929;SDS011;10127;47.780;9.606;2023-02-26T16:03:52;3.30;;;2.50;;
19929;SDS011;10127;47.780;9.606;2023-02-26T16:06:26;3.27;;;2.37;;
19929;SDS011;10127;47.780;9.606;2023-02-26T16:08:54;3.63;;;2.47;;
19929;SDS011;10127;47.780;9.606;2023-02-26T16:11:20;3.63;;;2.40;;
19929;SDS011;10127;47.780;9.606;2023-02-26T16:13:48;3.40;;;2.07;;
19929;SDS011;10127;47.780;9.606;2023-02-26T16:16:23;3.13;;;2.83;;
19929;SDS011;10127;47.780;9.606;2023-02-26T16:18:51;3.03;;;2.50;;
19929;SDS011;10127;47.780;9.606;2023-02-26T16:21:26;3.37;;;2.30;;
19929;SDS011;10127;47.780;9.606;2023-02-26T16:23:56;3.87;;;2.40;;
19929;SDS011;10127;47.780;9.606;2023-02-26T16:26:28;5.83;;;2.60;;
19929;SDS011;10127;47.780;9.606;2023-02-26T16:28:58;4.07;;;2.73;;
19929;SDS011;10127;47.780;9.606;2023-02-26T16:31:26;7.20;;;3.10;;
19929;SDS011;10127;47.780;9.606;2023-02-26T16:33:56;3.33;;;2.70;;
19929;SDS011;10127;47.780;9.606;2023-02-26T16:36:25;2.70;;;2.40;;
19929;SDS011;10127;47.780;9.606;2023-02-26T16:39:09;2.93;;;2.50;;
19929;SDS011;10127;47.780;9.606;2023-02-26T16:41:45;3.40;;;2.87;;
19929;SDS011;10127;47.780;9.606;2023-02-26T16:46:56;4.20;;;2.60;;
19929;SDS011;10127;47.780;9.606;2023-02-26T16:49:29;4.33;;;2.90;;
19929;SDS011;10127;47.780;9.606;2023-02-26T16:51:57;3.37;;;2.80;;
19929;SDS011;10127;47.780;9.606;2023-02-26T16:54:26;3.10;;;2.77;;
19929;SDS011;10127;47.780;9.606;2023-02-26T16:56:57;2.57;;;2.37;;
19929;SDS011;10127;47.780;9.606;2023-02-26T16:59:29;4.73;;;2.63;;
19929;SDS011;10127;47.780;9.606;2023-02-26T17:05:01;4.07;;;2.57;;
19929;SDS011;10127;47.780;9.606;2023-02-26T17:08:04;2.73;;;2.40;;
19929;SDS011;10127;47.780;9.606;2023-02-26T17:10:39;3.57;;;2.40;;
19929;SDS011;10127;47.780;9.606;2023-02-26T17:13:32;4.23;;;2.53;;
19929;SDS011;10127;47.780;9.606;2023-02-26T17:16:04;2.37;;;2.07;;
19929;SDS011;10127;47.780;9.606;2023-02-26T17:18:31;4.43;;;2.30;;
19929;SDS011;10127;47.780;9.606;2023-02-26T17:20:57;2.77;;;2.00;;
19929;SDS011;10127;47.780;9.606;2023-02-26T17:23:28;2.67;;;2.00;;
19929;SDS011;10127;47.780;9.606;2023-02-26T17:25:56;4.23;;;2.40;;
19929;SDS011;10127;47.780;9.606;2023-02-26T17:28:27;2.60;;;1.97;;
19929;SDS011;10127;47.780;9.606;2023-02-26T17:30:55;2.73;;;2.10;;
19929;SDS011;10127;47.780;9.606;2023-02-26T17:33:21;2.57;;;2.10;;
19929;SDS011;10127;47.780;9.606;2023-02-26T17:35:47;2.80;;;2.20;;
19929;SDS011;10127;47.780;9.606;2023-02-26T17:38:13;2.83;;;2.20;;
19929;SDS011;10127;47.780;9.606;2023-02-26T17:40:40;4.83;;;2.40;;
19929;SDS011;10127;47.780;9.606;2023-02-26T17:43:08;6.50;;;2.70;;
19929;SDS011;10127;47.780;9.606;2023-02-26T17:45:34;4.70;;;2.50;;
19929;SDS011;10127;47.780;9.606;2023-02-26T17:48:01;5.10;;;2.17;;
19929;SDS011;10127;47.780;9.606;2023-02-26T17:53:02;4.33;;;2.30;;
19929;SDS011;10127;47.780;9.606;2023-02-26T17:55:28;4.00;;;2.50;;
19929;SDS011;10127;47.780;9.606;2023-02-26T17:57:55;3.07;;;1.73;;
19929;SDS011;10127;47.780;9.606;2023-02-26T18:00:21;1.70;;;1.50;;
19929;SDS011;10127;47.780;9.606;2023-02-26T18:02:47;6.13;;;2.00;;
19929;SDS011;10127;47.780;9.606;2023-02-26T18:05:15;2.20;;;1.70;;
19929;SDS011;10127;47.780;9.606;2023-02-26T18:07:41;1.80;;;1.70;;